Terminal Aerodrome Forecast
Issued by NWS Detroit/Pontiac, MI

Current Version | Previous Version | Text Only | Print | Product List | Glossary On
Versions: 1 2 3 4 5 6 7 8 9 10 11 12 13 14 15 16
412
FTUS43 KDTX 221417 AAA
TAFFNT
TAF AMD
KFNT 221417Z 2214/2312 24012G18KT P6SM VCSH BKN040 BKN060
      TEMPO 2214/2216 BKN015 BKN040
     FM222000 28013G20KT P6SM BKN040
     FM222300 30010KT P6SM SCT040
     FM231000 26005KT P6SM SCT025=

USA.gov is the U.S. government's official web portal to all federal, state and local government web resources and services.